x

Folly Island, Sc (fbis1) Weather Station

8:00pm - Wed 24th May 2017 All times are EDT. -4 hours from GMT.

  • Wind
    23mph, 28mph gusts
  • Air Temp 77°f
  • Sea Pressure 1001.4mb
  • Folly Island, Sc
  • Folly Island, Sc

More Historic Weather Station data

Upgrade to MSW Pro to gain access to the past 30 days of data for over 8000 Wavebouys and Weather Stations around the globe.

Join Pro

Comparision Forecast

View Surf forecast
   
Wed 05/24 8:00pm 23 28 mph 1001.4mb 77f
7:00pm 29 32 mph 1001.9mb 76f
6:00pm 22 25 mph 1002.6mb 75f
5:00pm 21 22 mph 1002.4mb 73f
4:00pm 30 34 mph 1005.1mb 73f
3:00pm 24 30 mph 1005.7mb 72f
2:00pm 26 32 mph 1005.9mb 78f
1:00pm 22 25 mph 1005.5mb 77f
12:00pm 21 23 mph 1005.8mb 78f
11:00am 20 22 mph 1005.5mb 78f
10:00am 18 21 mph 1006mb 77f
9:00am 16 23 mph 1005.9mb 77f
8:00am 11 15 mph 1005.9mb 75f
7:00am 9 15 mph 1006mb 75f
6:00am 20 23 mph 1005.8mb 75f
5:00am 14 21 mph 1005.6mb 75f
4:00am 15 20 mph 1005.8mb 77f
3:00am 18 25 mph 1005.9mb 76f
2:00am 23 29 mph 1006.1mb 77f
1:00am 11 15 mph 1006.7mb 74f
12:00am 13 17 mph 1006.7mb 74f
Tue 05/23 11:00pm 16 18 mph 1007.5mb 72f
10:00pm 8 14 mph 1007.8mb 72f
9:00pm 6 7 mph 1007.6mb 72f
8:00pm 10 15 mph 1007.7mb 71f
7:00pm 18 21 mph 1007.9mb 77f
6:00pm 24 28 mph 1007.7mb 77f
5:00pm 17 20 mph 1008.3mb 77f
4:00pm 5 7 mph 1008.6mb 73f
3:00pm 5 7 mph 1009.4mb 73f
2:00pm 21 24 mph 1009.7mb 77f
1:00pm 21 25 mph 1009.7mb 78f
12:00pm 13 15 mph 1011mb 77f
11:00am 11 17 mph 1011.3mb 76f
10:00am 9 10 mph 1011.6mb 75f
9:00am 11 16 mph 1012.4mb 75f
8:00am 11 16 mph 1011.9mb 76f
7:00am 15 20 mph 1011.5mb 76f
6:00am 14 17 mph 1011mb 76f
5:00am 18 21 mph 1011.3mb 76f
4:00am 9 10 mph 1011.4mb 73f
3:00am 14 16 mph 1012.6mb 71f
2:00am 3 6 mph 1013.8mb 70f
1:00am 3 6 mph 1014.6mb 71f
12:00am 7 8 mph 1014.9mb 77f
Mon 05/22 11:00pm 7 8 mph 1015.8mb 78f
10:00pm 9 10 mph 1015.5mb 78f
9:00pm 9 10 mph 1015.6mb 77f
8:00pm 11 14 mph 1015.3mb 77f
7:00pm 10 11 mph 1015.2mb 77f
6:00pm 15 16 mph 1015mb 78f
5:00pm 16 17 mph 1015mb 78f
4:00pm 15 17 mph 1015.4mb 78f
3:00pm 13 15 mph 1016.4mb 79f
2:00pm 10 14 mph 1017.2mb 79f
1:00pm 10 13 mph 1018.2mb 78f
12:00pm 10 11 mph 1018.8mb 78f
11:00am 10 15 mph 1019.3mb 79f
10:00am 11 13 mph 1018.8mb 77f
9:00am 15 17 mph 1019.2mb 78f
8:00am 17 18 mph 1019.3mb 77f
7:00am 16 20 mph 1019.1mb 77f
6:00am 16 21 mph 1019mb 77f
5:00am 17 21 mph 1018.9mb 78f
4:00am 17 20 mph 1018.9mb 78f
3:00am 18 21 mph 1018.9mb 77f
2:00am 20 21 mph 1019.1mb 78f
1:00am 17 21 mph 1019.7mb 78f
12:00am 15 17 mph 1020.3mb 78f
Sun 05/21 11:00pm 18 20 mph 1020.3mb 78f
10:00pm 17 21 mph 1020.3mb 78f
9:00pm 17 21 mph 1019.6mb 78f
8:00pm 15 16 mph 1019.5mb 78f
7:00pm 15 16 mph 1019.8mb 78f
6:00pm 14 16 mph 1020mb 78f
5:00pm 16 18 mph 1019.8mb 78f
4:00pm 16 17 mph 1019.7mb 78f
3:00pm 13 14 mph 1020.8mb 78f
2:00pm 11 13 mph 1021.2mb 78f
1:00pm 11 14 mph 1021.6mb 78f
12:00pm 10 11 mph 1022.3mb 78f
11:00am 8 9 mph 1022.7mb 78f
10:00am 8 9 mph 1022.5mb 78f
9:00am 8 10 mph 1022.3mb 78f
8:00am 9 10 mph 1021.8mb 77f
7:00am 10 11 mph 1021.6mb 77f
6:00am 9 11 mph 1021.2mb 77f
5:00am 11 14 mph 1021.5mb 77f
4:00am 14 15 mph 1020.7mb 77f
3:00am 14 16 mph 1020.2mb 77f
2:00am 15 16 mph 1020.6mb 77f